Time;durP1;ratioP1;P1;durP2;ratioP2;P2;SDS_P1;SDS_P2;PMS_P1;PMS_P2;Temp;Humidity;BMP_temperature;BMP_pressure;BME280_temperature;BME280_humidity;BME280_pressure;Samples;Min_cycle;Max_cycle;Signal;HPM_P1;HPM_P2
2022/07/22 00:01:05;;;;;;;4.10;3.70;;;;;;;;;;5062360;28;20213;-30
2022/07/22 00:03:32;;;;;;;3.92;3.63;;;;;;;;;;5071158;28;20197;-33
2022/07/22 00:05:59;;;;;;;4.67;4.13;;;;;;;;;;5065571;28;20287;-31
2022/07/22 00:08:27;;;;;;;5.25;4.00;;;;;;;;;;5065586;28;20705;-32
2022/07/22 00:10:54;;;;;;;4.10;3.70;;;;;;;;;;5070287;28;20219;-30
2022/07/22 00:13:23;;;;;;;4.50;4.05;;;;;;;;;;5063222;28;20205;-33
2022/07/22 00:15:50;;;;;;;4.40;3.92;;;;;;;;;;5062458;28;20201;-34
2022/07/22 00:18:17;;;;;;;4.30;3.70;;;;;;;;;;5063133;28;20217;-30
2022/07/22 00:20:44;;;;;;;6.15;4.10;;;;;;;;;;5066942;28;20193;-34
2022/07/22 00:23:11;;;;;;;4.38;3.95;;;;;;;;;;5067135;28;20213;-30
2022/07/22 00:25:39;;;;;;;6.03;3.90;;;;;;;;;;5062785;28;20225;-29
2022/07/22 00:28:06;;;;;;;5.32;4.18;;;;;;;;;;5069577;28;20248;-32
2022/07/22 00:30:35;;;;;;;6.97;3.75;;;;;;;;;;5070674;28;20229;-31
2022/07/22 00:33:02;;;;;;;4.25;3.90;;;;;;;;;;5059931;28;20208;-33
2022/07/22 00:35:29;;;;;;;4.15;3.70;;;;;;;;;;5059972;28;20206;-31
2022/07/22 00:37:56;;;;;;;3.97;3.67;;;;;;;;;;5068358;28;20232;-30
2022/07/22 00:40:23;;;;;;;4.45;4.05;;;;;;;;;;5068127;28;20212;-33
2022/07/22 00:42:50;;;;;;;5.03;4.00;;;;;;;;;;5067649;28;20193;-30
2022/07/22 00:45:17;;;;;;;7.53;4.75;;;;;;;;;;5069350;28;20201;-32
2022/07/22 00:47:46;;;;;;;5.60;4.13;;;;;;;;;;5069934;28;20217;-31
2022/07/22 00:50:14;;;;;;;4.85;4.20;;;;;;;;;;5065525;28;20216;-29
2022/07/22 00:52:42;;;;;;;4.68;4.28;;;;;;;;;;5064760;28;20288;-32
2022/07/22 00:55:10;;;;;;;4.38;3.97;;;;;;;;;;5069813;28;20208;-29
2022/07/22 00:57:37;;;;;;;4.07;3.65;;;;;;;;;;5061069;28;20222;-32
2022/07/22 01:00:06;;;;;;;6.90;4.18;;;;;;;;;;5065725;28;20208;-30
2022/07/22 01:02:33;;;;;;;4.68;4.28;;;;;;;;;;5059752;28;20198;-28
2022/07/22 01:05:01;;;;;;;5.30;4.60;;;;;;;;;;5052571;28;20201;-32
2022/07/22 01:07:28;;;;;;;4.40;4.00;;;;;;;;;;5068381;28;20229;-29
2022/07/22 01:09:56;;;;;;;4.43;4.03;;;;;;;;;;5069254;28;20221;-30
2022/07/22 01:12:23;;;;;;;6.85;4.40;;;;;;;;;;5069410;28;20209;-31
2022/07/22 01:14:50;;;;;;;6.25;4.43;;;;;;;;;;5061665;28;20201;-32
2022/07/22 01:17:17;;;;;;;4.78;4.30;;;;;;;;;;5069402;28;20213;-30
2022/07/22 01:19:44;;;;;;;5.05;4.40;;;;;;;;;;5065393;28;20197;-31
2022/07/22 01:22:13;;;;;;;5.75;4.63;;;;;;;;;;5058309;28;20229;-29
2022/07/22 01:24:40;;;;;;;5.85;4.57;;;;;;;;;;5069412;28;20228;-33
2022/07/22 01:27:07;;;;;;;6.22;4.22;;;;;;;;;;5069625;28;20224;-30
2022/07/22 01:29:34;;;;;;;4.90;4.07;;;;;;;;;;5060659;28;20232;-34
2022/07/22 01:32:01;;;;;;;4.72;4.20;;;;;;;;;;5060847;28;20224;-31
2022/07/22 01:34:28;;;;;;;5.93;4.20;;;;;;;;;;5067117;28;20205;-30
2022/07/22 01:36:55;;;;;;;5.57;4.57;;;;;;;;;;5062787;28;20240;-34
2022/07/22 01:39:24;;;;;;;5.70;4.77;;;;;;;;;;5069482;28;20204;-34
2022/07/22 01:41:51;;;;;;;6.33;4.63;;;;;;;;;;5069285;28;20197;-29
2022/07/22 01:44:18;;;;;;;7.40;4.30;;;;;;;;;;5062399;28;20207;-29
2022/07/22 01:46:45;;;;;;;4.73;4.33;;;;;;;;;;5065139;28;20224;-33
2022/07/22 01:49:12;;;;;;;7.97;4.53;;;;;;;;;;5068123;28;20241;-30
2022/07/22 01:51:39;;;;;;;4.77;4.30;;;;;;;;;;5063875;28;20208;-32
2022/07/22 01:54:07;;;;;;;4.33;3.97;;;;;;;;;;5072234;28;20213;-33
2022/07/22 01:56:35;;;;;;;4.40;4.00;;;;;;;;;;5059618;28;20264;-30
2022/07/22 01:59:02;;;;;;;4.30;3.90;;;;;;;;;;5054712;28;20206;-32
2022/07/22 02:01:29;;;;;;;5.13;4.17;;;;;;;;;;5073160;28;20193;-29
2022/07/22 02:03:56;;;;;;;4.73;4.27;;;;;;;;;;5073313;28;20211;-30
2022/07/22 02:06:24;;;;;;;4.40;3.50;;;;;;;;;;5064106;28;20220;-29
2022/07/22 02:08:51;;;;;;;4.40;4.00;;;;;;;;;;5069427;28;20197;-31
2022/07/22 02:11:18;;;;;;;6.93;4.27;;;;;;;;;;5071345;28;20232;-30
2022/07/22 02:13:46;;;;;;;4.87;3.93;;;;;;;;;;5067629;28;20217;-33
2022/07/22 02:16:13;;;;;;;4.47;4.07;;;;;;;;;;5061583;28;20197;-28
2022/07/22 02:18:41;;;;;;;6.63;4.20;;;;;;;;;;5073032;28;20280;-33
2022/07/22 02:21:08;;;;;;;5.73;4.30;;;;;;;;;;5067269;28;20205;-31
2022/07/22 02:23:35;;;;;;;4.77;4.27;;;;;;;;;;5067751;28;20205;-30
2022/07/22 02:26:02;;;;;;;4.83;4.03;;;;;;;;;;5072855;28;20205;-32
2022/07/22 02:28:29;;;;;;;6.03;3.88;;;;;;;;;;5065855;28;20203;-31
2022/07/22 02:30:58;;;;;;;4.77;4.30;;;;;;;;;;5066429;28;20224;-30
2022/07/22 02:33:25;;;;;;;4.93;4.10;;;;;;;;;;5072836;28;20212;-30
2022/07/22 02:35:52;;;;;;;4.43;4.03;;;;;;;;;;5068254;28;20254;-31
2022/07/22 02:38:19;;;;;;;4.40;3.80;;;;;;;;;;5069845;28;20221;-33
2022/07/22 02:40:46;;;;;;;5.13;3.80;;;;;;;;;;5074613;28;20302;-32
2022/07/22 02:43:14;;;;;;;4.87;4.07;;;;;;;;;;5060660;28;20269;-30
2022/07/22 02:45:41;;;;;;;5.13;4.13;;;;;;;;;;5060384;28;20215;-33
2022/07/22 02:48:09;;;;;;;5.83;4.53;;;;;;;;;;5070966;28;20232;-31
2022/07/22 02:50:37;;;;;;;4.60;4.10;;;;;;;;;;5068409;28;20221;-31
2022/07/22 02:53:04;;;;;;;4.70;4.10;;;;;;;;;;5071868;28;20245;-30
2022/07/22 02:55:32;;;;;;;8.03;3.97;;;;;;;;;;5071540;28;20197;-32
2022/07/22 02:58:05;;;;;;;8.30;4.70;;;;;;;;;;5072658;28;20314;-32
2022/07/22 03:00:32;;;;;;;6.13;4.57;;;;;;;;;;5061726;28;20208;-28
2022/07/22 03:02:59;;;;;;;6.60;4.50;;;;;;;;;;5069317;28;20221;-30
2022/07/22 03:05:27;;;;;;;7.40;4.07;;;;;;;;;;5065815;28;20201;-28
2022/07/22 03:07:54;;;;;;;6.07;4.30;;;;;;;;;;5071968;28;20232;-30
2022/07/22 03:10:22;;;;;;;7.37;4.30;;;;;;;;;;5070593;28;20220;-33
2022/07/22 03:12:49;;;;;;;4.63;3.90;;;;;;;;;;5066461;28;20226;-30
2022/07/22 03:15:16;;;;;;;4.93;4.43;;;;;;;;;;5064408;28;20205;-30
2022/07/22 03:17:43;;;;;;;9.03;4.10;;;;;;;;;;5071332;28;20221;-29
2022/07/22 03:20:11;;;;;;;6.70;4.77;;;;;;;;;;5067177;28;20234;-30
2022/07/22 03:22:40;;;;;;;8.40;4.63;;;;;;;;;;5067548;28;20208;-28
2022/07/22 03:25:07;;;;;;;5.77;4.70;;;;;;;;;;5071203;28;20209;-30
2022/07/22 03:27:34;;;;;;;8.13;4.57;;;;;;;;;;5068040;28;20396;-30
2022/07/22 03:30:01;;;;;;;5.30;4.80;;;;;;;;;;5059440;28;20218;-31
2022/07/22 03:32:29;;;;;;;5.93;4.50;;;;;;;;;;5072091;28;20212;-31
2022/07/22 03:34:56;;;;;;;4.83;4.37;;;;;;;;;;5067581;28;20197;-30
2022/07/22 03:37:23;;;;;;;5.00;4.60;;;;;;;;;;5066431;28;20318;-28
2022/07/22 03:39:51;;;;;;;5.10;4.60;;;;;;;;;;5069851;28;20208;-32
2022/07/22 03:42:18;;;;;;;4.80;4.20;;;;;;;;;;5064498;28;20201;-29
2022/07/22 03:44:46;;;;;;;7.33;5.17;;;;;;;;;;5068721;28;20200;-32
2022/07/22 03:47:13;;;;;;;4.83;4.43;;;;;;;;;;5056347;28;20245;-29
2022/07/22 03:49:40;;;;;;;5.90;5.30;;;;;;;;;;5065652;28;20209;-32
2022/07/22 03:52:08;;;;;;;4.40;4.00;;;;;;;;;;5069584;28;20229;-28
2022/07/22 03:54:35;;;;;;;4.80;4.40;;;;;;;;;;5070804;28;20219;-29
2022/07/22 03:57:03;;;;;;;4.70;4.30;;;;;;;;;;5072018;28;20243;-31
2022/07/22 03:59:30;;;;;;;5.13;4.53;;;;;;;;;;5064816;28;20210;-26
2022/07/22 04:01:58;;;;;;;7.23;4.47;;;;;;;;;;5071667;28;20197;-30
2022/07/22 04:04:25;;;;;;;4.70;4.30;;;;;;;;;;5070223;28;20208;-32
2022/07/22 04:06:52;;;;;;;4.97;4.50;;;;;;;;;;5067178;28;20220;-30
2022/07/22 04:11:47;;;;;;;4.90;4.37;;;;;;;;;;5050077;28;20462;-45
2022/07/22 04:14:16;;;;;;;4.80;4.40;;;;;;;;;;5039476;28;20209;-44
2022/07/22 04:16:43;;;;;;;5.83;4.70;;;;;;;;;;5050091;28;20241;-46
2022/07/22 04:19:11;;;;;;;6.10;4.90;;;;;;;;;;5050769;28;20204;-43
2022/07/22 04:21:38;;;;;;;4.33;3.93;;;;;;;;;;5041022;28;20202;-40
2022/07/22 04:24:05;;;;;;;4.87;4.00;;;;;;;;;;5051242;28;20201;-40
2022/07/22 04:26:32;;;;;;;4.77;4.23;;;;;;;;;;5051379;28;20243;-44
2022/07/22 04:28:59;;;;;;;5.87;4.73;;;;;;;;;;5049158;28;20209;-46
2022/07/22 04:31:28;;;;;;;6.40;4.70;;;;;;;;;;5047009;28;20233;-44
2022/07/22 04:33:55;;;;;;;5.90;4.87;;;;;;;;;;5041088;28;20207;-45
2022/07/22 04:36:22;;;;;;;6.10;4.60;;;;;;;;;;5045867;28;20232;-47
2022/07/22 04:38:49;;;;;;;5.37;4.80;;;;;;;;;;5052898;28;20198;-44
2022/07/22 04:41:17;;;;;;;7.63;4.57;;;;;;;;;;5053522;28;20212;-38
2022/07/22 04:43:44;;;;;;;5.93;4.70;;;;;;;;;;5048027;28;20205;-45
2022/07/22 04:46:12;;;;;;;5.93;5.17;;;;;;;;;;5045126;28;20300;-45
2022/07/22 04:48:40;;;;;;;4.73;4.33;;;;;;;;;;5043752;28;20216;-43
2022/07/22 04:51:08;;;;;;;5.07;4.67;;;;;;;;;;5035837;28;20226;-42
2022/07/22 04:53:39;;;;;;;5.60;4.93;;;;;;;;;;5052839;28;20205;-46
2022/07/22 04:56:07;;;;;;;6.20;5.20;;;;;;;;;;5056477;28;20209;-46
2022/07/22 04:58:35;;;;;;;7.77;4.90;;;;;;;;;;5053286;28;20211;-43
2022/07/22 05:01:02;;;;;;;7.63;5.07;;;;;;;;;;5045303;28;20209;-44
2022/07/22 05:03:29;;;;;;;7.00;5.47;;;;;;;;;;5050107;28;20197;-40
2022/07/22 05:05:59;;;;;;;6.80;4.80;;;;;;;;;;5039085;28;20211;-44
2022/07/22 05:08:26;;;;;;;5.60;5.10;;;;;;;;;;5048383;28;20206;-47
2022/07/22 05:10:53;;;;;;;5.80;5.20;;;;;;;;;;5046596;28;20458;-41
2022/07/22 05:13:20;;;;;;;5.80;5.20;;;;;;;;;;5046866;28;20678;-44
2022/07/22 05:15:47;;;;;;;5.33;4.47;;;;;;;;;;5044684;28;20220;-40
2022/07/22 05:18:14;;;;;;;5.03;4.47;;;;;;;;;;5048501;28;20228;-45
2022/07/22 05:20:41;;;;;;;5.30;4.80;;;;;;;;;;5040327;28;20216;-42
2022/07/22 05:23:14;;;;;;;6.27;5.00;;;;;;;;;;5045302;28;20204;-45
2022/07/22 05:25:42;;;;;;;6.00;5.07;;;;;;;;;;5049275;28;20198;-42
2022/07/22 05:28:09;;;;;;;5.70;5.20;;;;;;;;;;5047621;28;20223;-44
2022/07/22 05:30:36;;;;;;;6.20;5.60;;;;;;;;;;5039841;28;20201;-44
2022/07/22 05:33:04;;;;;;;6.80;5.43;;;;;;;;;;5050719;28;20213;-38
2022/07/22 05:35:31;;;;;;;5.63;5.13;;;;;;;;;;5047785;28;20201;-42
2022/07/22 05:37:58;;;;;;;8.25;5.50;;;;;;;;;;5046685;28;20221;-39
2022/07/22 05:40:28;;;;;;;5.60;5.00;;;;;;;;;;5045339;28;20202;-42
2022/07/22 05:42:55;;;;;;;6.25;5.65;;;;;;;;;;5042503;28;20229;-41
2022/07/22 05:45:22;;;;;;;5.78;5.22;;;;;;;;;;5039115;28;20201;-42
2022/07/22 05:47:50;;;;;;;7.53;5.60;;;;;;;;;;5049515;28;20214;-45
2022/07/22 05:50:17;;;;;;;7.13;5.50;;;;;;;;;;5045889;28;20273;-41
2022/07/22 05:52:44;;;;;;;6.22;5.63;;;;;;;;;;5048831;28;20229;-43
2022/07/22 05:55:11;;;;;;;6.75;5.88;;;;;;;;;;5049529;28;20292;-39
2022/07/22 05:57:40;;;;;;;6.95;5.38;;;;;;;;;;5047953;28;20264;-41
2022/07/22 06:00:08;;;;;;;6.63;5.45;;;;;;;;;;5046790;28;20619;-42
2022/07/22 06:02:35;;;;;;;5.78;5.28;;;;;;;;;;5049129;28;20194;-43
2022/07/22 06:05:02;;;;;;;6.00;5.40;;;;;;;;;;5044202;28;20321;-43
2022/07/22 06:07:29;;;;;;;7.32;5.97;;;;;;;;;;5038257;28;20226;-43
2022/07/22 06:09:57;;;;;;;6.60;5.82;;;;;;;;;;5048556;28;20202;-40
2022/07/22 06:12:24;;;;;;;7.43;5.55;;;;;;;;;;5030068;28;20319;-39
2022/07/22 06:14:52;;;;;;;8.55;5.95;;;;;;;;;;5036193;28;20231;-46
2022/07/22 06:17:20;;;;;;;6.03;5.20;;;;;;;;;;5049455;28;20283;-45
2022/07/22 06:19:47;;;;;;;5.85;5.35;;;;;;;;;;5045737;28;20215;-43
2022/07/22 06:22:17;;;;;;;6.53;5.88;;;;;;;;;;5043417;28;20253;-41
2022/07/22 06:24:44;;;;;;;6.20;5.68;;;;;;;;;;5049868;28;20208;-38
2022/07/22 06:27:11;;;;;;;6.43;5.82;;;;;;;;;;5038598;28;20262;-41
2022/07/22 06:29:40;;;;;;;9.13;5.55;;;;;;;;;;5044394;28;20234;-42
2022/07/22 06:32:09;;;;;;;6.93;5.75;;;;;;;;;;5047322;28;20250;-43
2022/07/22 06:34:36;;;;;;;7.10;6.38;;;;;;;;;;5040988;28;20291;-43
2022/07/22 06:37:03;;;;;;;6.40;5.78;;;;;;;;;;5047420;28;20224;-43
2022/07/22 06:39:30;;;;;;;6.50;5.90;;;;;;;;;;5053284;28;20208;-46
2022/07/22 06:41:58;;;;;;;6.50;5.85;;;;;;;;;;5043471;28;20258;-40
2022/07/22 06:44:25;;;;;;;7.70;6.00;;;;;;;;;;5045826;28;20235;-43
2022/07/22 06:46:53;;;;;;;8.98;6.28;;;;;;;;;;5053776;28;20213;-46
2022/07/22 06:49:23;;;;;;;6.03;5.50;;;;;;;;;;5052483;28;20201;-40
2022/07/22 06:51:53;;;;;;;6.75;5.72;;;;;;;;;;5048025;28;20229;-41
2022/07/22 06:54:20;;;;;;;6.47;5.78;;;;;;;;;;5045029;28;20213;-44
2022/07/22 06:56:47;;;;;;;6.95;5.95;;;;;;;;;;5052982;28;20221;-42
2022/07/22 06:59:15;;;;;;;6.93;6.10;;;;;;;;;;5049450;28;20210;-41
2022/07/22 07:01:42;;;;;;;7.00;6.30;;;;;;;;;;5048174;28;20240;-45
2022/07/22 07:04:09;;;;;;;13.52;6.55;;;;;;;;;;5053726;28;20206;-42
2022/07/22 07:06:38;;;;;;;6.53;5.93;;;;;;;;;;5047926;28;20245;-43
2022/07/22 07:09:05;;;;;;;7.90;6.15;;;;;;;;;;5050919;28;20529;-42
2022/07/22 07:11:33;;;;;;;6.72;6.07;;;;;;;;;;5052102;28;20319;-43
2022/07/22 07:14:00;;;;;;;6.88;6.18;;;;;;;;;;5048657;28;20206;-45
2022/07/22 07:16:27;;;;;;;7.35;6.65;;;;;;;;;;5052098;28;20228;-42
2022/07/22 07:18:54;;;;;;;7.70;6.90;;;;;;;;;;5053016;28;20205;-43
2022/07/22 07:21:21;;;;;;;6.90;6.20;;;;;;;;;;5039994;28;20208;-44
2022/07/22 07:23:50;;;;;;;9.82;6.57;;;;;;;;;;5052103;28;20217;-42
2022/07/22 07:26:17;;;;;;;8.35;6.38;;;;;;;;;;5045238;28;20201;-43
2022/07/22 07:28:45;;;;;;;7.18;6.20;;;;;;;;;;5052423;28;20292;-43
2022/07/22 07:31:13;;;;;;;7.60;6.47;;;;;;;;;;5049729;28;20206;-39
2022/07/22 07:33:40;;;;;;;6.50;5.55;;;;;;;;;;5052074;28;20202;-43
2022/07/22 07:36:08;;;;;;;6.28;5.75;;;;;;;;;;5050381;28;20220;-44
2022/07/22 07:38:36;;;;;;;7.75;6.10;;;;;;;;;;5047483;28;20381;-44
2022/07/22 07:41:06;;;;;;;8.93;6.28;;;;;;;;;;5052648;28;20202;-41
2022/07/22 07:43:34;;;;;;;6.88;5.78;;;;;;;;;;5037353;28;20276;-42
2022/07/22 07:46:03;;;;;;;6.97;6.07;;;;;;;;;;5050354;28;20202;-43
2022/07/22 07:48:30;;;;;;;6.60;6.05;;;;;;;;;;5046885;28;20195;-40
2022/07/22 07:50:58;;;;;;;8.75;6.50;;;;;;;;;;5043059;28;20201;-41
2022/07/22 07:53:25;;;;;;;7.43;6.10;;;;;;;;;;5051916;28;20229;-37
2022/07/22 07:55:52;;;;;;;6.70;5.97;;;;;;;;;;5053794;28;20209;-46
2022/07/22 07:58:21;;;;;;;7.20;5.88;;;;;;;;;;5042864;28;20234;-45
2022/07/22 08:00:48;;;;;;;6.45;5.30;;;;;;;;;;5034135;28;20195;-44
2022/07/22 08:03:16;;;;;;;10.23;5.68;;;;;;;;;;5052677;28;20210;-43
2022/07/22 08:05:46;;;;;;;5.57;4.78;;;;;;;;;;5047550;28;20221;-43
2022/07/22 08:08:13;;;;;;;5.97;4.97;;;;;;;;;;5051181;28;20713;-42
2022/07/22 08:10:42;;;;;;;6.30;5.40;;;;;;;;;;5050628;28;20515;-44
2022/07/22 08:13:10;;;;;;;6.35;5.40;;;;;;;;;;5046510;28;20260;-42
2022/07/22 08:15:39;;;;;;;7.05;5.50;;;;;;;;;;5045979;28;20567;-38
2022/07/22 08:18:06;;;;;;;7.43;5.90;;;;;;;;;;5051702;28;20226;-38
2022/07/22 08:20:33;;;;;;;6.63;5.28;;;;;;;;;;5046108;28;20210;-41
2022/07/22 08:23:04;;;;;;;10.00;5.40;;;;;;;;;;5044603;28;20201;-44
2022/07/22 08:25:31;;;;;;;6.72;5.03;;;;;;;;;;5044680;28;20276;-44
2022/07/22 08:27:59;;;;;;;8.25;5.20;;;;;;;;;;5046451;28;20297;-44
2022/07/22 08:30:28;;;;;;;6.35;5.65;;;;;;;;;;5048161;28;20237;-44
2022/07/22 08:33:12;;;;;;;7.45;5.93;;;;;;;;;;5051485;28;20250;-45
2022/07/22 08:35:41;;;;;;;6.65;5.85;;;;;;;;;;5039225;28;20203;-40
2022/07/22 08:38:08;;;;;;;7.50;5.28;;;;;;;;;;5049459;28;20232;-39
2022/07/22 08:40:35;;;;;;;6.05;5.53;;;;;;;;;;5051588;28;20202;-44
2022/07/22 08:43:05;;;;;;;5.97;5.43;;;;;;;;;;5049501;28;20200;-41
2022/07/22 08:45:33;;;;;;;5.72;5.03;;;;;;;;;;5040573;28;20205;-45
2022/07/22 08:48:02;;;;;;;5.38;4.88;;;;;;;;;;5050219;28;20263;-45
2022/07/22 08:50:30;;;;;;;5.78;5.15;;;;;;;;;;5047362;28;20233;-42
2022/07/22 08:52:59;;;;;;;6.90;5.57;;;;;;;;;;5048499;28;20222;-44
2022/07/22 08:55:26;;;;;;;5.88;5.13;;;;;;;;;;5044809;28;20202;-42
2022/07/22 08:57:53;;;;;;;6.97;5.32;;;;;;;;;;5050727;28;20229;-43
2022/07/22 09:00:21;;;;;;;5.78;4.82;;;;;;;;;;5049400;28;20312;-43
2022/07/22 09:02:49;;;;;;;6.85;4.75;;;;;;;;;;5051777;28;20201;-40
2022/07/22 09:05:19;;;;;;;6.55;5.50;;;;;;;;;;5042370;28;20212;-40
2022/07/22 09:07:47;;;;;;;5.00;4.53;;;;;;;;;;5050101;28;20226;-45
2022/07/22 09:10:17;;;;;;;5.18;4.75;;;;;;;;;;5047531;28;20707;-42
2022/07/22 09:12:55;;;;;;;5.25;4.80;;;;;;;;;;5038855;28;20233;-43
2022/07/22 09:15:30;;;;;;;6.05;4.55;;;;;;;;;;5035219;28;20275;-44
2022/07/22 09:17:58;;;;;;;4.95;4.55;;;;;;;;;;5049784;28;20239;-42
2022/07/22 09:20:26;;;;;;;5.50;4.80;;;;;;;;;;5044914;28;20210;-45
2022/07/22 09:22:53;;;;;;;6.03;4.63;;;;;;;;;;5041115;28;20202;-41
2022/07/22 09:25:23;;;;;;;5.65;5.03;;;;;;;;;;5046526;28;20199;-45
2022/07/22 09:27:51;;;;;;;4.57;4.18;;;;;;;;;;5030306;28;20222;-39
2022/07/22 09:30:19;;;;;;;6.40;4.03;;;;;;;;;;5040538;28;20209;-44
2022/07/22 09:32:46;;;;;;;7.68;4.47;;;;;;;;;;5050572;28;20206;-43
2022/07/22 09:35:14;;;;;;;5.03;4.53;;;;;;;;;;5044683;28;20220;-44
2022/07/22 09:37:49;;;;;;;6.38;4.53;;;;;;;;;;5044927;28;20221;-42
2022/07/22 09:40:17;;;;;;;6.95;4.63;;;;;;;;;;5050405;28;20213;-46
2022/07/22 09:42:49;;;;;;;5.28;4.70;;;;;;;;;;5050725;28;20296;-42
2022/07/22 09:45:16;;;;;;;4.60;4.07;;;;;;;;;;5037637;28;20206;-43
2022/07/22 09:47:44;;;;;;;5.75;5.07;;;;;;;;;;5046654;28;20222;-45
2022/07/22 09:50:16;;;;;;;5.47;4.60;;;;;;;;;;5044928;28;20210;-43
2022/07/22 09:52:43;;;;;;;6.32;4.53;;;;;;;;;;5039001;28;20217;-42
2022/07/22 09:55:10;;;;;;;5.30;4.82;;;;;;;;;;5048023;28;20209;-43
2022/07/22 09:57:37;;;;;;;8.05;4.75;;;;;;;;;;5049677;28;20308;-43
2022/07/22 10:00:09;;;;;;;4.63;4.22;;;;;;;;;;5033605;28;20257;-43
2022/07/22 10:02:38;;;;;;;6.45;5.40;;;;;;;;;;5043724;28;20198;-45
2022/07/22 10:05:06;;;;;;;7.03;5.28;;;;;;;;;;5042082;28;20214;-42
2022/07/22 10:07:34;;;;;;;5.60;5.10;;;;;;;;;;5042941;28;20225;-44
2022/07/22 10:12:29;;;;;;;7.78;5.30;;;;;;;;;;5052310;28;20263;-38
2022/07/22 10:14:57;;;;;;;5.15;4.60;;;;;;;;;;5041875;28;20209;-34
2022/07/22 10:17:25;;;;;;;7.88;5.47;;;;;;;;;;5060930;28;20220;-41
2022/07/22 10:19:53;;;;;;;6.15;5.30;;;;;;;;;;5060414;28;20202;-39
2022/07/22 10:22:38;;;;;;;5.30;4.80;;;;;;;;;;5056879;28;20262;-36
2022/07/22 10:25:06;;;;;;;6.30;5.70;;;;;;;;;;5063564;28;20201;-35
2022/07/22 10:27:45;;;;;;;7.55;5.32;;;;;;;;;;5054098;28;20224;-40
2022/07/22 10:30:14;;;;;;;6.50;5.20;;;;;;;;;;5044530;28;20212;-40
2022/07/22 10:32:43;;;;;;;8.27;5.38;;;;;;;;;;5055719;28;20228;-40
2022/07/22 10:35:26;;;;;;;5.38;4.85;;;;;;;;;;5039787;28;20202;-37
2022/07/22 10:37:55;;;;;;;6.60;5.57;;;;;;;;;;5051942;28;20235;-41
2022/07/22 10:40:25;;;;;;;6.13;5.07;;;;;;;;;;5056101;28;20201;-38
2022/07/22 10:43:06;;;;;;;6.07;5.47;;;;;;;;;;5054546;28;20193;-35
2022/07/22 10:45:35;;;;;;;5.25;4.75;;;;;;;;;;5047426;28;20201;-41
2022/07/22 10:48:05;;;;;;;7.18;5.30;;;;;;;;;;5063351;28;20229;-38
2022/07/22 10:50:49;;;;;;;5.90;5.30;;;;;;;;;;5050171;28;20211;-41
2022/07/22 10:53:17;;;;;;;6.60;4.93;;;;;;;;;;5054359;28;20244;-39
2022/07/22 10:56:09;;;;;;;6.82;5.45;;;;;;;;;;5057918;28;20206;-43
2022/07/22 10:58:47;;;;;;;5.53;5.03;;;;;;;;;;5031364;28;20269;-39
2022/07/22 11:01:15;;;;;;;7.30;5.50;;;;;;;;;;5045164;28;20199;-41
2022/07/22 11:03:45;;;;;;;7.90;5.65;;;;;;;;;;5061178;28;20197;-37
2022/07/22 11:06:16;;;;;;;5.70;4.68;;;;;;;;;;5054243;28;20220;-38
2022/07/22 11:08:43;;;;;;;5.57;5.07;;;;;;;;;;5051126;28;20217;-33
2022/07/22 11:11:10;;;;;;;5.82;5.30;;;;;;;;;;5055343;28;20202;-44
2022/07/22 11:13:39;;;;;;;5.13;4.53;;;;;;;;;;5054933;28;20267;-35
2022/07/22 11:16:19;;;;;;;10.05;4.85;;;;;;;;;;5045230;28;20247;-35
2022/07/22 11:18:52;;;;;;;6.70;4.78;;;;;;;;;;5063413;28;20422;-42
2022/07/22 11:21:20;;;;;;;5.97;5.47;;;;;;;;;;5043506;28;20198;-37
2022/07/22 11:23:48;;;;;;;6.13;5.50;;;;;;;;;;5058778;28;20197;-36
2022/07/22 11:26:16;;;;;;;5.95;4.70;;;;;;;;;;5075185;28;20201;-40
2022/07/22 11:28:44;;;;;;;6.55;4.70;;;;;;;;;;5060241;28;20202;-34
2022/07/22 11:31:11;;;;;;;5.95;5.38;;;;;;;;;;5059833;28;20265;-36
2022/07/22 11:33:38;;;;;;;5.53;5.00;;;;;;;;;;5054931;28;20217;-36
2022/07/22 11:36:09;;;;;;;5.82;5.30;;;;;;;;;;5046640;28;20213;-33
2022/07/22 11:38:43;;;;;;;5.70;4.97;;;;;;;;;;5051461;28;20212;-36
2022/07/22 11:41:10;;;;;;;5.97;5.28;;;;;;;;;;5073873;28;20208;-41
2022/07/22 11:43:41;;;;;;;5.25;4.75;;;;;;;;;;5054724;28;20199;-37
2022/07/22 11:46:08;;;;;;;5.47;4.93;;;;;;;;;;5051495;28;20201;-40
2022/07/22 11:48:37;;;;;;;9.95;5.15;;;;;;;;;;5058468;28;20206;-39
2022/07/22 11:51:04;;;;;;;7.20;4.57;;;;;;;;;;5049433;28;20225;-38
2022/07/22 11:53:33;;;;;;;6.90;5.45;;;;;;;;;;5058749;28;20221;-36
2022/07/22 11:56:00;;;;;;;5.60;4.95;;;;;;;;;;5056045;28;20209;-36
2022/07/22 11:58:37;;;;;;;5.25;4.50;;;;;;;;;;5046381;28;20203;-34
2022/07/22 12:01:06;;;;;;;5.13;4.65;;;;;;;;;;5051613;28;20205;-33
2022/07/22 12:03:34;;;;;;;5.20;4.68;;;;;;;;;;5060300;28;20194;-41
2022/07/22 12:06:02;;;;;;;5.35;4.72;;;;;;;;;;5046919;28;20202;-36
2022/07/22 12:08:29;;;;;;;5.10;4.60;;;;;;;;;;5056276;28;20202;-37
2022/07/22 12:10:58;;;;;;;6.68;4.68;;;;;;;;;;5053984;28;20212;-37
2022/07/22 12:13:30;;;;;;;6.95;4.95;;;;;;;;;;5049541;28;20301;-36
2022/07/22 12:15:57;;;;;;;4.75;4.35;;;;;;;;;;5039784;28;20198;-39
2022/07/22 12:18:26;;;;;;;5.40;4.80;;;;;;;;;;5054080;28;20210;-41
2022/07/22 12:20:54;;;;;;;5.57;5.05;;;;;;;;;;5043280;28;20193;-37
2022/07/22 12:23:21;;;;;;;5.75;4.53;;;;;;;;;;5055014;28;20193;-32
2022/07/22 12:25:55;;;;;;;5.00;4.50;;;;;;;;;;5070897;28;20633;-40
2022/07/22 12:28:23;;;;;;;6.20;4.18;;;;;;;;;;5053414;28;20224;-36
2022/07/22 12:30:51;;;;;;;5.03;4.50;;;;;;;;;;5058041;28;20207;-33
2022/07/22 12:33:19;;;;;;;4.95;4.55;;;;;;;;;;5073088;28;20288;-40
2022/07/22 12:35:59;;;;;;;4.50;4.10;;;;;;;;;;5056714;28;20198;-40
2022/07/22 12:38:26;;;;;;;6.72;4.55;;;;;;;;;;5054911;28;20216;-37
2022/07/22 12:40:53;;;;;;;5.70;4.45;;;;;;;;;;5065388;28;20194;-37
2022/07/22 12:43:25;;;;;;;5.32;4.82;;;;;;;;;;5049788;28;20226;-39
2022/07/22 12:45:53;;;;;;;5.10;4.47;;;;;;;;;;5053106;28;20205;-42
2022/07/22 12:48:20;;;;;;;5.72;4.20;;;;;;;;;;5061280;28;20225;-40
2022/07/22 12:50:57;;;;;;;5.53;4.32;;;;;;;;;;5047890;28;20198;-38
2022/07/22 12:53:24;;;;;;;5.68;4.68;;;;;;;;;;5062695;28;20271;-39
2022/07/22 12:55:55;;;;;;;4.60;4.18;;;;;;;;;;5061790;28;20202;-37
2022/07/22 12:58:22;;;;;;;5.38;4.93;;;;;;;;;;5045781;28;20222;-36
2022/07/22 13:00:51;;;;;;;5.25;4.78;;;;;;;;;;5049964;28;20197;-39
2022/07/22 13:03:21;;;;;;;5.50;4.75;;;;;;;;;;5053512;28;20241;-40
2022/07/22 13:05:49;;;;;;;5.00;4.50;;;;;;;;;;5045820;28;20198;-35
2022/07/22 13:08:16;;;;;;;5.95;5.05;;;;;;;;;;5055457;28;20228;-40
2022/07/22 13:10:43;;;;;;;4.88;4.47;;;;;;;;;;5068830;28;20208;-35
2022/07/22 13:13:10;;;;;;;5.50;5.00;;;;;;;;;;5073153;28;20212;-33
2022/07/22 13:15:39;;;;;;;6.20;4.28;;;;;;;;;;5044232;28;20203;-34
2022/07/22 13:18:06;;;;;;;7.47;4.13;;;;;;;;;;5049609;28;20226;-39
2022/07/22 13:20:35;;;;;;;5.35;4.72;;;;;;;;;;5063854;28;20204;-36
2022/07/22 13:23:02;;;;;;;4.82;4.38;;;;;;;;;;5062730;28;20229;-36
2022/07/22 13:25:30;;;;;;;6.78;4.65;;;;;;;;;;5059086;28;20202;-37
2022/07/22 13:27:58;;;;;;;5.50;3.90;;;;;;;;;;5051829;28;20308;-37
2022/07/22 13:30:25;;;;;;;4.68;4.28;;;;;;;;;;5048015;28;20201;-37
2022/07/22 13:32:53;;;;;;;6.50;4.47;;;;;;;;;;5069298;28;20208;-42
2022/07/22 13:35:20;;;;;;;4.90;4.43;;;;;;;;;;5056183;28;20201;-37
2022/07/22 13:37:49;;;;;;;4.97;4.35;;;;;;;;;;5047974;28;20225;-39
2022/07/22 13:40:16;;;;;;;6.13;4.38;;;;;;;;;;5064502;28;20292;-40
2022/07/22 13:42:43;;;;;;;6.47;4.10;;;;;;;;;;5072789;28;20209;-36
2022/07/22 13:45:11;;;;;;;8.55;4.38;;;;;;;;;;5053869;28;20202;-36
2022/07/22 13:47:38;;;;;;;4.50;4.10;;;;;;;;;;5053594;28;20213;-35
2022/07/22 13:50:06;;;;;;;6.15;4.70;;;;;;;;;;5057597;28;20209;-39
2022/07/22 13:52:34;;;;;;;4.22;3.92;;;;;;;;;;5057612;28;20197;-40
2022/07/22 13:55:02;;;;;;;4.55;4.07;;;;;;;;;;5064155;28;20217;-33
2022/07/22 13:57:29;;;;;;;4.45;4.05;;;;;;;;;;5072814;28;20228;-32
2022/07/22 13:59:56;;;;;;;4.50;4.10;;;;;;;;;;5051987;28;20198;-36
2022/07/22 14:02:24;;;;;;;4.43;4.03;;;;;;;;;;5053641;28;20263;-39
2022/07/22 14:04:51;;;;;;;4.63;4.07;;;;;;;;;;5056713;28;20202;-32
2022/07/22 14:07:18;;;;;;;4.82;4.38;;;;;;;;;;5044036;28;20218;-37
2022/07/22 14:09:45;;;;;;;4.93;4.43;;;;;;;;;;5051885;28;20202;-39
2022/07/22 14:12:14;;;;;;;4.78;4.00;;;;;;;;;;5044138;28;20214;-37
2022/07/22 14:14:41;;;;;;;5.32;4.60;;;;;;;;;;5050579;28;20216;-40
2022/07/22 14:17:08;;;;;;;5.13;4.25;;;;;;;;;;5051329;28;20218;-34
2022/07/22 14:19:35;;;;;;;6.05;4.13;;;;;;;;;;5050195;28;20209;-39
2022/07/22 14:22:02;;;;;;;5.28;4.35;;;;;;;;;;5048689;28;20202;-35
2022/07/22 14:24:29;;;;;;;6.13;4.25;;;;;;;;;;5062148;28;20196;-36
2022/07/22 14:26:56;;;;;;;4.45;4.13;;;;;;;;;;5055192;28;20229;-33
2022/07/22 14:29:25;;;;;;;8.07;4.10;;;;;;;;;;5046488;28;20209;-36
2022/07/22 14:31:52;;;;;;;4.65;4.20;;;;;;;;;;5055969;28;20198;-37
2022/07/22 14:34:19;;;;;;;7.43;4.68;;;;;;;;;;5057304;28;20225;-35
2022/07/22 14:36:46;;;;;;;4.80;4.03;;;;;;;;;;5043444;28;20289;-36
2022/07/22 14:39:13;;;;;;;5.13;4.63;;;;;;;;;;5051082;28;20194;-35
2022/07/22 14:41:40;;;;;;;5.07;4.57;;;;;;;;;;5052145;28;20194;-36
2022/07/22 14:44:07;;;;;;;4.75;4.30;;;;;;;;;;5048832;28;20203;-34
2022/07/22 14:46:36;;;;;;;4.65;4.13;;;;;;;;;;5058659;28;20228;-39
2022/07/22 14:49:03;;;;;;;4.50;4.05;;;;;;;;;;5062215;28;20197;-37
2022/07/22 14:51:30;;;;;;;6.65;4.45;;;;;;;;;;5049797;28;20197;-39
2022/07/22 14:53:57;;;;;;;6.28;4.43;;;;;;;;;;5047460;28;20218;-36